createdAt,value
2019-03-01T00:01:53.668Z,2.40
2019-03-01T00:05:06.794Z,2.57
2019-03-01T00:08:20.351Z,2.43
2019-03-01T00:11:30.586Z,2.63
2019-03-01T00:14:56.075Z,2.63
2019-03-01T00:18:32.888Z,2.37
2019-03-01T00:21:42.743Z,2.50
2019-03-01T00:25:42.595Z,2.87
2019-03-01T00:28:29.907Z,3.07
2019-03-01T00:31:35.549Z,2.93
2019-03-01T00:35:02.083Z,2.90
2019-03-01T00:39:02.225Z,2.63
2019-03-01T00:42:16.677Z,3.30
2019-03-01T00:44:47.671Z,3.30
2019-03-01T00:47:16.389Z,2.77
2019-03-01T00:49:44.666Z,2.90
2019-03-01T00:52:12.700Z,2.40
2019-03-01T00:54:40.716Z,2.40
2019-03-01T00:57:08.751Z,2.57
2019-03-01T00:59:36.775Z,2.70
2019-03-01T01:02:06.843Z,2.70
2019-03-01T01:04:34.778Z,2.30
2019-03-01T01:07:03.030Z,2.10
2019-03-01T01:09:31.228Z,1.80
2019-03-01T01:11:59.551Z,2.10
2019-03-01T01:14:28.041Z,1.70
2019-03-01T01:16:56.637Z,1.70
2019-03-01T01:19:25.675Z,1.60
2019-03-01T01:21:54.491Z,1.50
2019-03-01T01:24:22.857Z,1.70
2019-03-01T01:26:50.962Z,1.73
2019-03-01T01:29:18.994Z,1.67
2019-03-01T01:31:47.115Z,1.80
2019-03-01T01:34:15.325Z,1.60
2019-03-01T01:36:43.918Z,1.60
2019-03-01T01:39:12.955Z,2.10
2019-03-01T01:41:40.890Z,1.80
2019-03-01T01:44:08.843Z,1.40
2019-03-01T01:46:37.914Z,1.40
2019-03-01T01:49:06.391Z,1.53
2019-03-01T01:51:35.174Z,1.90
2019-03-01T01:54:03.220Z,1.63
2019-03-01T01:56:32.352Z,1.40
2019-03-01T01:59:00.469Z,1.27
2019-03-01T02:01:28.412Z,1.30
2019-03-01T02:03:57.055Z,1.03
2019-03-01T02:06:25.475Z,0.90
2019-03-01T02:08:54.035Z,1.30
2019-03-01T02:11:23.035Z,1.30
2019-03-01T02:13:52.705Z,0.93
2019-03-01T02:16:21.464Z,1.10
2019-03-01T02:18:57.542Z,1.00
2019-03-01T02:21:20.534Z,1.20
2019-03-01T02:23:48.987Z,0.90
2019-03-01T02:26:17.683Z,1.20
2019-03-01T02:28:45.716Z,1.00
2019-03-01T02:31:15.249Z,1.00
2019-03-01T02:33:43.553Z,1.03
2019-03-01T02:36:11.898Z,0.80
2019-03-01T02:38:40.758Z,1.00
2019-03-01T02:41:09.051Z,0.90
2019-03-01T02:43:37.097Z,1.00
2019-03-01T02:46:05.371Z,0.90
2019-03-01T02:48:51.988Z,1.10
2019-03-01T02:51:27.210Z,0.90
2019-03-01T02:53:55.214Z,1.00
2019-03-01T02:56:23.393Z,0.93
2019-03-01T02:58:51.645Z,0.93
2019-03-01T03:01:19.696Z,1.13
2019-03-01T03:03:48.139Z,1.20
2019-03-01T03:06:24.236Z,1.03
2019-03-01T03:08:52.661Z,1.10
2019-03-01T03:11:20.824Z,1.30
2019-03-01T03:13:49.106Z,1.30
2019-03-01T03:16:18.608Z,1.60
2019-03-01T03:18:47.065Z,1.67
2019-03-01T03:21:15.124Z,1.50
2019-03-01T03:23:43.234Z,1.43
2019-03-01T03:26:11.481Z,1.70
2019-03-01T03:28:39.638Z,1.50
2019-03-01T03:31:08.089Z,1.47
2019-03-01T03:33:37.328Z,1.70
2019-03-01T03:36:06.614Z,1.97
2019-03-01T03:38:34.699Z,1.80
2019-03-01T03:41:02.975Z,1.50
2019-03-01T03:43:31.074Z,1.90
2019-03-01T03:45:59.219Z,1.90
2019-03-01T03:48:27.342Z,2.00
2019-03-01T03:50:55.545Z,1.87
2019-03-01T03:53:23.649Z,1.90
2019-03-01T03:55:52.573Z,1.83
2019-03-01T03:58:20.634Z,1.73
2019-03-01T04:00:50.007Z,2.00
2019-03-01T04:03:18.370Z,1.93
2019-03-01T04:05:48.774Z,2.00
2019-03-01T04:08:17.230Z,1.83
2019-03-01T04:10:45.278Z,2.00
2019-03-01T04:13:16.546Z,2.03
2019-03-01T04:15:44.683Z,1.97
2019-03-01T04:18:13.113Z,1.87
2019-03-01T04:20:41.270Z,1.80
2019-03-01T04:23:09.575Z,1.70
2019-03-01T04:25:37.855Z,1.50
2019-03-01T04:28:06.852Z,1.43
2019-03-01T04:30:35.407Z,1.60
2019-03-01T04:33:04.523Z,1.50
2019-03-01T04:35:33.708Z,1.47
2019-03-01T04:38:02.487Z,1.40
2019-03-01T04:40:30.636Z,1.47
2019-03-01T04:42:58.798Z,1.87
2019-03-01T04:45:26.983Z,1.53
2019-03-01T04:47:55.080Z,1.57
2019-03-01T04:50:23.582Z,1.40
2019-03-01T04:52:51.737Z,1.30
2019-03-01T04:55:23.149Z,1.50
2019-03-01T04:57:52.882Z,1.47
2019-03-01T05:00:22.995Z,1.37
2019-03-01T05:02:51.438Z,1.40
2019-03-01T05:05:19.427Z,1.70
2019-03-01T05:07:48.042Z,1.40
2019-03-01T05:10:17.109Z,1.50
2019-03-01T05:12:45.294Z,1.20
2019-03-01T05:15:19.429Z,1.00
2019-03-01T05:17:48.557Z,1.20
2019-03-01T05:20:17.207Z,1.10
2019-03-01T05:22:45.548Z,1.10
2019-03-01T05:25:14.553Z,1.20
2019-03-01T05:27:43.224Z,1.10
2019-03-01T05:30:13.821Z,1.10
2019-03-01T05:32:42.538Z,1.20
2019-03-01T05:35:10.969Z,1.10
2019-03-01T05:37:39.149Z,1.43
2019-03-01T05:40:08.497Z,1.20
2019-03-01T05:42:37.524Z,1.60
2019-03-01T05:45:12.322Z,1.57
2019-03-01T05:47:40.552Z,1.40
2019-03-01T05:50:11.124Z,1.97
2019-03-01T05:52:39.394Z,2.00
2019-03-01T05:55:07.671Z,2.47
2019-03-01T05:57:35.960Z,2.33
2019-03-01T06:00:07.088Z,1.60
2019-03-01T06:03:21.449Z,1.40
2019-03-01T06:05:49.825Z,1.40
2019-03-01T06:09:18.796Z,1.20
2019-03-01T06:12:47.480Z,1.20
2019-03-01T06:16:14.846Z,1.37
2019-03-01T06:19:35.870Z,1.20
2019-03-01T06:23:08.868Z,1.30
2019-03-01T06:26:28.041Z,1.17
2019-03-01T06:29:49.434Z,1.00
2019-03-01T06:33:33.617Z,1.40
2019-03-01T06:36:41.293Z,1.70
2019-03-01T06:39:45.857Z,2.17
2019-03-01T06:42:57.206Z,1.30
2019-03-01T06:46:19.613Z,1.23
2019-03-01T06:49:10.637Z,1.50
2019-03-01T06:51:45.368Z,1.00
2019-03-01T06:54:14.075Z,1.80
2019-03-01T06:56:49.293Z,2.00
2019-03-01T06:59:19.793Z,1.00
2019-03-01T07:01:49.099Z,1.03
2019-03-01T07:04:18.026Z,1.27
2019-03-01T07:06:46.179Z,1.30
2019-03-01T07:09:14.547Z,1.27
2019-03-01T07:11:43.306Z,1.23
2019-03-01T07:14:11.857Z,1.90
2019-03-01T07:16:40.004Z,1.00
2019-03-01T07:19:08.656Z,0.90
2019-03-01T07:21:37.142Z,1.03
2019-03-01T07:24:05.642Z,0.80
2019-03-01T07:26:33.901Z,1.10
2019-03-01T07:29:02.066Z,1.10
2019-03-01T07:31:31.993Z,0.90
2019-03-01T07:34:01.805Z,1.07
2019-03-01T07:36:29.923Z,1.20
2019-03-01T07:38:58.205Z,1.30
2019-03-01T07:41:26.847Z,1.17
2019-03-01T07:43:55.896Z,1.10
2019-03-01T07:46:25.165Z,0.83
2019-03-01T07:48:54.928Z,1.07
2019-03-01T07:51:26.940Z,1.20
2019-03-01T07:53:57.468Z,1.30
2019-03-01T07:56:25.868Z,1.17
2019-03-01T07:58:53.905Z,1.20
2019-03-01T08:01:22.001Z,1.60
2019-03-01T08:03:53.026Z,1.60
2019-03-01T08:06:21.250Z,1.20
2019-03-01T08:08:50.268Z,1.23
2019-03-01T08:11:18.471Z,1.10
2019-03-01T08:13:49.384Z,1.20
2019-03-01T08:16:20.182Z,1.17
2019-03-01T08:18:47.374Z,1.20
2019-03-01T08:21:15.491Z,1.40
2019-03-01T08:23:43.846Z,1.40
2019-03-01T08:26:11.915Z,1.43
2019-03-01T08:28:40.278Z,1.30
2019-03-01T08:31:09.895Z,1.10
2019-03-01T08:33:42.400Z,1.10
2019-03-01T08:36:09.230Z,0.73
2019-03-01T08:38:37.582Z,0.83
2019-03-01T08:41:06.561Z,0.90
2019-03-01T08:43:35.890Z,0.70
2019-03-01T08:46:09.015Z,0.60
2019-03-01T08:48:35.721Z,1.07
2019-03-01T08:51:04.623Z,0.60
2019-03-01T08:53:32.888Z,0.57
2019-03-01T08:56:01.484Z,0.80
2019-03-01T08:58:30.610Z,0.80
2019-03-01T09:01:00.015Z,0.80
2019-03-01T09:03:35.776Z,0.80
2019-03-01T09:06:04.059Z,0.80
2019-03-01T09:08:32.546Z,0.50
2019-03-01T09:11:00.632Z,0.83
2019-03-01T09:13:29.083Z,0.60
2019-03-01T09:15:57.201Z,0.73
2019-03-01T09:18:25.433Z,0.40
2019-03-01T09:20:54.232Z,0.70
2019-03-01T09:23:27.105Z,0.77
2019-03-01T09:25:55.204Z,0.20
2019-03-01T09:28:24.381Z,0.80
2019-03-01T09:30:52.839Z,0.60
2019-03-01T09:33:22.955Z,0.70
2019-03-01T09:35:58.724Z,1.03
2019-03-01T09:38:26.794Z,0.47
2019-03-01T09:40:57.352Z,0.90
2019-03-01T09:43:27.820Z,0.97
2019-03-01T09:45:55.338Z,1.40
2019-03-01T09:48:23.657Z,1.17
2019-03-01T09:50:52.558Z,1.70
2019-03-01T09:53:20.942Z,1.03
2019-03-01T09:55:51.509Z,1.90
2019-03-01T09:58:19.642Z,1.43
2019-03-01T10:00:56.537Z,1.60
2019-03-01T10:03:25.854Z,1.70
2019-03-01T10:05:53.845Z,1.13
2019-03-01T10:08:22.218Z,2.60
2019-03-01T10:10:50.857Z,3.23
2019-03-01T10:13:19.629Z,3.10
2019-03-01T10:15:48.574Z,2.10
2019-03-01T10:18:17.218Z,1.70
2019-03-01T10:20:45.890Z,1.90
2019-03-01T10:23:14.346Z,0.90
2019-03-01T10:25:42.743Z,1.13
2019-03-01T10:28:11.027Z,1.50
2019-03-01T10:30:39.644Z,1.27
2019-03-01T10:33:08.104Z,1.50
2019-03-01T10:35:36.224Z,1.13
2019-03-01T10:38:04.489Z,2.00
2019-03-01T10:40:34.747Z,1.33
2019-03-01T10:43:03.392Z,0.93
2019-03-01T10:45:31.608Z,0.70
2019-03-01T10:48:00.181Z,0.70
2019-03-01T10:50:28.592Z,0.77
2019-03-01T10:52:56.932Z,0.97
2019-03-01T10:55:24.941Z,0.90
2019-03-01T10:57:53.789Z,0.73
2019-03-01T11:00:24.171Z,0.90
2019-03-01T11:02:52.617Z,0.80
2019-03-01T11:05:22.162Z,0.90
2019-03-01T11:07:51.249Z,1.20
2019-03-01T11:10:26.802Z,87.63
2019-03-01T11:12:54.989Z,0.90
2019-03-01T11:15:27.528Z,0.90
2019-03-01T11:17:56.368Z,0.90
2019-03-01T11:20:25.230Z,1.17
2019-03-01T11:22:53.656Z,0.90
2019-03-01T11:25:22.295Z,1.10
2019-03-01T11:27:50.995Z,1.20
2019-03-01T11:30:25.040Z,1.47
2019-03-01T11:32:53.198Z,1.20
2019-03-01T11:35:21.307Z,1.20
2019-03-01T11:37:49.362Z,1.40
2019-03-01T11:40:21.028Z,1.60
2019-03-01T11:42:49.847Z,1.70
2019-03-01T11:45:18.052Z,2.10
2019-03-01T11:47:46.137Z,2.20
2019-03-01T11:50:19.822Z,2.00
2019-03-01T11:52:48.380Z,2.20
2019-03-01T11:55:18.237Z,2.00
2019-03-01T11:57:46.399Z,2.30
2019-03-01T12:00:19.661Z,2.60
2019-03-01T12:02:50.047Z,3.00
2019-03-01T12:05:18.168Z,2.53
2019-03-01T12:07:46.707Z,2.87
2019-03-01T12:10:17.921Z,2.90
2019-03-01T12:12:46.560Z,2.70
2019-03-01T12:15:14.723Z,3.77
2019-03-01T12:17:43.096Z,3.40
2019-03-01T12:20:14.038Z,4.60
2019-03-01T12:22:42.447Z,5.37
2019-03-01T12:25:11.216Z,4.60
2019-03-01T12:27:39.619Z,8.53
2019-03-01T12:30:12.195Z,6.70
2019-03-01T12:32:40.868Z,4.90
2019-03-01T12:35:09.621Z,3.60
2019-03-01T12:37:38.401Z,5.87
2019-03-01T12:40:09.901Z,6.27
2019-03-01T12:42:38.330Z,3.70
2019-03-01T12:45:08.514Z,3.40
2019-03-01T12:47:36.838Z,3.43
2019-03-01T12:50:06.146Z,3.43
2019-03-01T12:52:34.489Z,3.40
2019-03-01T12:55:02.925Z,3.43
2019-03-01T12:57:31.793Z,3.70
2019-03-01T13:00:00.382Z,3.57
2019-03-01T13:02:28.615Z,3.70
2019-03-01T13:04:58.231Z,3.30
2019-03-01T13:07:26.660Z,3.60
2019-03-01T13:09:55.182Z,3.20
2019-03-01T13:12:26.135Z,3.73
2019-03-01T13:14:53.700Z,3.43
2019-03-01T13:17:22.172Z,3.87
2019-03-01T13:19:50.747Z,3.57
2019-03-01T13:22:19.315Z,3.67
2019-03-01T13:24:50.322Z,3.43
2019-03-01T13:27:18.815Z,3.40
2019-03-01T13:29:47.592Z,3.90
2019-03-01T13:32:16.120Z,3.60
2019-03-01T13:34:45.865Z,3.97
2019-03-01T13:37:19.380Z,3.87
2019-03-01T13:39:48.619Z,3.93
2019-03-01T13:42:16.487Z,4.03
2019-03-01T13:44:45.318Z,4.03
2019-03-01T13:47:13.922Z,3.67
2019-03-01T13:49:42.067Z,3.80
2019-03-01T13:52:11.338Z,3.97
2019-03-01T13:54:42.415Z,3.63
2019-03-01T13:57:12.372Z,3.30
2019-03-01T13:59:44.077Z,4.10
2019-03-01T14:02:13.800Z,3.67
2019-03-01T14:04:42.166Z,3.87
2019-03-01T14:07:10.807Z,8.13
2019-03-01T14:09:39.746Z,3.40
2019-03-01T14:12:08.697Z,3.90
2019-03-01T14:14:36.969Z,3.60
2019-03-01T14:17:06.063Z,3.67
2019-03-01T14:19:33.989Z,3.33
2019-03-01T14:22:05.279Z,3.30
2019-03-01T14:24:32.540Z,3.77
2019-03-01T14:27:00.598Z,4.97
2019-03-01T14:29:28.754Z,6.43
2019-03-01T14:31:57.030Z,4.70
2019-03-01T14:34:25.047Z,4.97
2019-03-01T14:36:56.051Z,5.20
2019-03-01T14:39:24.826Z,5.10
2019-03-01T14:41:53.583Z,5.47
2019-03-01T14:44:23.020Z,4.97
2019-03-01T14:46:52.922Z,4.97
2019-03-01T14:49:21.894Z,6.80
2019-03-01T14:51:51.059Z,5.43
2019-03-01T14:54:21.315Z,5.57
2019-03-01T14:57:28.320Z,5.87
2019-03-01T15:00:13.093Z,6.77
2019-03-01T15:03:32.777Z,6.93
2019-03-01T15:06:02.110Z,9.33
2019-03-01T15:08:31.168Z,7.47
2019-03-01T15:11:04.412Z,6.90
2019-03-01T15:13:34.855Z,7.33
2019-03-01T15:16:06.034Z,7.10
2019-03-01T15:18:35.055Z,6.90
2019-03-01T15:21:03.716Z,6.30
2019-03-01T15:23:32.256Z,7.37
2019-03-01T15:26:00.838Z,3.40
2019-03-01T15:28:29.917Z,4.20
2019-03-01T15:30:58.258Z,5.77
2019-03-01T15:33:26.370Z,12.63
2019-03-01T15:35:54.599Z,21.10
2019-03-01T15:38:23.807Z,21.13
2019-03-01T15:40:53.155Z,20.70
2019-03-01T15:43:21.548Z,14.93
2019-03-01T15:45:50.110Z,14.70
2019-03-01T15:48:22.992Z,25.37
2019-03-01T15:50:51.908Z,16.50
2019-03-01T15:53:21.540Z,17.73
2019-03-01T15:55:52.188Z,14.63
2019-03-01T15:58:20.628Z,13.87
2019-03-01T16:00:49.153Z,11.67
2019-03-01T16:03:17.602Z,10.73
2019-03-01T16:05:46.337Z,11.47
2019-03-01T16:08:14.878Z,11.43
2019-03-01T16:10:44.662Z,13.30
2019-03-01T16:13:13.319Z,11.63
2019-03-01T16:15:42.509Z,11.63
2019-03-01T16:18:11.594Z,12.53
2019-03-01T16:20:43.921Z,12.73
2019-03-01T16:23:14.193Z,13.43
2019-03-01T16:25:43.194Z,12.93
2019-03-01T16:28:11.411Z,13.53
2019-03-01T16:30:39.651Z,14.57
2019-03-01T16:33:08.042Z,15.33
2019-03-01T16:35:36.172Z,14.93
2019-03-01T16:38:04.996Z,15.57
2019-03-01T16:40:34.166Z,14.57
2019-03-01T16:43:02.691Z,14.37
2019-03-01T16:45:53.337Z,14.47
2019-03-01T16:48:22.439Z,13.63
2019-03-01T16:50:50.854Z,14.30
2019-03-01T16:53:19.288Z,14.50
2019-03-01T16:55:49.263Z,14.00
2019-03-01T16:58:17.984Z,13.70
2019-03-01T17:00:50.705Z,14.17
2019-03-01T17:03:18.492Z,14.90
2019-03-01T17:05:47.813Z,14.53
2019-03-01T17:08:19.167Z,15.03
2019-03-01T17:10:47.425Z,14.93
2019-03-01T17:13:15.865Z,15.30
2019-03-01T17:15:45.560Z,15.27
2019-03-01T17:18:15.125Z,15.43
2019-03-01T17:20:43.407Z,15.60
2019-03-01T17:23:12.758Z,15.63
2019-03-01T17:25:41.062Z,15.37
2019-03-01T17:28:09.972Z,15.80
2019-03-01T17:30:38.338Z,16.30
2019-03-01T17:33:09.702Z,15.87
2019-03-01T17:35:40.931Z,15.03
2019-03-01T17:38:08.888Z,16.50
2019-03-01T17:40:37.049Z,16.43
2019-03-01T17:43:05.887Z,15.20
2019-03-01T17:45:34.292Z,15.90
2019-03-01T17:48:03.541Z,16.40
2019-03-01T17:50:31.864Z,15.50
2019-03-01T17:53:01.009Z,15.70
2019-03-01T17:55:29.409Z,15.70
2019-03-01T17:57:57.662Z,16.17
2019-03-01T18:00:33.849Z,17.07
2019-03-01T18:03:02.566Z,18.23
2019-03-01T18:05:33.285Z,15.97
2019-03-01T18:08:03.703Z,17.03
2019-03-01T18:10:33.075Z,16.47
2019-03-01T18:13:01.446Z,16.63
2019-03-01T18:15:29.985Z,16.53
2019-03-01T18:17:58.501Z,16.53
2019-03-01T18:20:26.894Z,16.43
2019-03-01T18:22:59.292Z,18.93
2019-03-01T18:25:27.132Z,20.17
2019-03-01T18:27:55.656Z,17.30
2019-03-01T18:30:24.056Z,21.33
2019-03-01T18:32:52.932Z,18.03
2019-03-01T18:35:21.800Z,18.13
2019-03-01T18:37:51.470Z,17.63
2019-03-01T18:40:20.640Z,18.17
2019-03-01T18:42:49.605Z,19.00
2019-03-01T18:45:17.913Z,19.33
2019-03-01T18:47:46.146Z,18.90
2019-03-01T18:50:19.221Z,19.90
2019-03-01T18:52:49.659Z,19.87
2019-03-01T18:55:19.203Z,19.93
2019-03-01T18:57:47.434Z,20.43
2019-03-01T19:00:28.952Z,21.30
2019-03-01T19:02:57.576Z,20.50
2019-03-01T19:05:25.719Z,22.60
2019-03-01T19:07:55.367Z,21.17
2019-03-01T19:10:23.988Z,20.67
2019-03-01T19:12:53.875Z,22.50
2019-03-01T19:15:22.718Z,22.47
2019-03-01T19:17:51.776Z,20.67
2019-03-01T19:20:23.012Z,22.27
2019-03-01T19:22:52.331Z,21.50
2019-03-01T19:25:21.728Z,23.00
2019-03-01T19:27:51.034Z,23.97
2019-03-01T19:30:21.071Z,24.13
2019-03-01T19:32:49.516Z,22.37
2019-03-01T19:35:17.973Z,24.63
2019-03-01T19:37:49.795Z,22.97
2019-03-01T19:40:17.715Z,24.70
2019-03-01T19:42:48.554Z,24.33
2019-03-01T19:45:18.440Z,24.47
2019-03-01T19:47:49.836Z,24.63
2019-03-01T19:50:21.738Z,25.20
2019-03-01T19:53:02.415Z,26.47
2019-03-01T19:55:31.501Z,27.40
2019-03-01T19:57:59.594Z,26.73
2019-03-01T20:00:27.762Z,26.23
2019-03-01T20:02:56.231Z,27.27
2019-03-01T20:05:27.778Z,28.07
2019-03-01T20:07:55.792Z,26.07
2019-03-01T20:10:24.378Z,24.93
2019-03-01T20:12:53.611Z,26.80
2019-03-01T20:15:23.290Z,27.53
2019-03-01T20:17:51.431Z,26.50
2019-03-01T20:20:21.535Z,25.70
2019-03-01T20:22:50.569Z,25.70
2019-03-01T20:25:19.899Z,26.03
2019-03-01T20:27:48.310Z,25.53
2019-03-01T20:30:28.797Z,24.07
2019-03-01T20:32:52.468Z,25.23
2019-03-01T20:35:20.625Z,25.43
2019-03-01T20:37:49.829Z,24.83
2019-03-01T20:40:18.766Z,22.93
2019-03-01T20:42:47.985Z,20.60
2019-03-01T20:45:20.305Z,22.20
2019-03-01T20:47:50.464Z,21.33
2019-03-01T20:50:19.162Z,21.87
2019-03-01T20:52:48.158Z,21.37
2019-03-01T20:55:16.662Z,21.40
2019-03-01T20:57:46.431Z,21.60
2019-03-01T21:00:15.835Z,21.40
2019-03-01T21:02:46.875Z,21.47
2019-03-01T21:05:15.079Z,20.93
2019-03-01T21:07:48.186Z,20.03
2019-03-01T21:10:18.702Z,20.30
2019-03-01T21:12:47.359Z,20.57
2019-03-01T21:15:16.200Z,19.73
2019-03-01T21:17:44.450Z,20.57
2019-03-01T21:20:15.952Z,20.23
2019-03-01T21:22:43.410Z,20.27
2019-03-01T21:25:13.532Z,20.20
2019-03-01T21:27:41.773Z,20.13
2019-03-01T21:30:24.117Z,20.13
2019-03-01T21:32:54.529Z,20.03
2019-03-01T21:35:22.917Z,20.40
2019-03-01T21:37:51.919Z,20.67
2019-03-01T21:40:21.295Z,20.13
2019-03-01T21:42:52.984Z,20.67
2019-03-01T21:45:21.522Z,21.10
2019-03-01T21:47:52.491Z,20.77
2019-03-01T21:50:20.628Z,20.50
2019-03-01T21:52:48.750Z,21.40
2019-03-01T21:55:17.099Z,21.33
2019-03-01T21:57:45.720Z,20.27
2019-03-01T22:00:17.972Z,21.07
2019-03-01T22:02:48.925Z,20.80
2019-03-01T22:05:17.056Z,21.87
2019-03-01T22:07:45.640Z,21.60
2019-03-01T22:10:14.231Z,21.03
2019-03-01T22:12:42.741Z,20.77
2019-03-01T22:15:25.469Z,20.50
2019-03-01T22:17:53.068Z,20.70
2019-03-01T22:20:22.064Z,21.27
2019-03-01T22:22:51.062Z,19.80
2019-03-01T22:25:19.934Z,19.47
2019-03-01T22:27:49.362Z,19.50
2019-03-01T22:30:24.594Z,20.70
2019-03-01T22:32:52.660Z,20.20
2019-03-01T22:35:22.248Z,19.97
2019-03-01T22:37:50.924Z,19.97
2019-03-01T22:40:19.242Z,21.00
2019-03-01T22:42:49.677Z,19.97
2019-03-01T22:45:18.232Z,19.23
2019-03-01T22:47:47.081Z,20.20
2019-03-01T22:50:16.013Z,20.27
2019-03-01T22:52:44.979Z,19.97
2019-03-01T22:55:14.989Z,19.60
2019-03-01T22:57:44.926Z,20.10
2019-03-01T23:01:09.944Z,19.60
2019-03-01T23:03:39.098Z,19.60
2019-03-01T23:06:07.786Z,19.67
2019-03-01T23:08:37.192Z,20.07
2019-03-01T23:11:06.685Z,19.93
2019-03-01T23:13:36.614Z,20.90
2019-03-01T23:16:05.910Z,20.20
2019-03-01T23:18:37.588Z,21.23
2019-03-01T23:21:07.053Z,20.87
2019-03-01T23:23:36.557Z,20.87
2019-03-01T23:26:05.654Z,19.93
2019-03-01T23:28:34.678Z,20.10
2019-03-01T23:31:03.640Z,20.17
2019-03-01T23:33:34.367Z,20.33
2019-03-01T23:36:03.375Z,21.50
2019-03-01T23:38:34.405Z,20.77
2019-03-01T23:41:02.560Z,22.00
2019-03-01T23:43:34.912Z,22.83
2019-03-01T23:46:03.445Z,20.37
2019-03-01T23:48:31.932Z,21.00
2019-03-01T23:51:06.617Z,20.97
2019-03-01T23:53:34.947Z,22.37
2019-03-01T23:56:03.470Z,22.30
2019-03-01T23:58:33.580Z,21.93
